> <
  • 1
  • 2

Novidades

  • Temos o prazer de lhe apresentar… Ler mais +
  • Está disponível a secção Multimédia no… Ler mais +
  • 1
[source: ADDS]
METAR
LPPR 201500Z 19007KT 170V240 CAVOK 21/02 Q1020 =
TAF
TAF LPPR 201100Z 2012/2112 12012KT CAVOK BECMG 2012/2015 21005KT BECMG 2018/2021 10010KT =

contactos